Time;durP1;ratioP1;P1;durP2;ratioP2;P2;SDS_P1;SDS_P2;PMS_P1;PMS_P2;Temp;Humidity;BMP_temperature;BMP_pressure;BME280_temperature;BME280_humidity;BME280_pressure;Samples;Min_cycle;Max_cycle;Signal;HPM_P1;HPM_P2
2023/04/05 00:00:46;;;;;;;0.57;0.38;;;3.90;70.60;;;;;;5080842;28;20499;-68
2023/04/05 00:03:12;;;;;;;0.25;0.25;;;3.90;70.50;;;;;;5116017;28;20493;-68
2023/04/05 00:05:38;;;;;;;0.60;0.30;;;3.90;70.50;;;;;;5115552;28;20105;-68
2023/04/05 00:08:07;;;;;;;0.30;0.30;;;3.80;70.50;;;;;;5115571;28;20367;-68
2023/04/05 00:10:33;;;;;;;0.50;0.32;;;3.80;70.50;;;;;;5115434;28;20040;-69
2023/04/05 00:12:59;;;;;;;0.60;0.50;;;3.80;70.60;;;;;;5115444;28;20371;-69
2023/04/05 00:15:26;;;;;;;0.68;0.50;;;3.70;70.60;;;;;;5115928;28;20047;-68
2023/04/05 00:17:53;;;;;;;0.50;0.50;;;3.70;70.70;;;;;;5115741;28;20050;-68
2023/04/05 00:20:19;;;;;;;1.23;0.40;;;3.70;70.80;;;;;;5115897;28;20390;-68
2023/04/05 00:22:45;;;;;;;0.30;0.30;;;3.60;70.70;;;;;;5115802;28;20429;-68
2023/04/05 00:25:12;;;;;;;0.40;0.30;;;3.60;70.80;;;;;;5115086;28;20044;-68
2023/04/05 00:27:38;;;;;;;0.57;0.40;;;3.60;70.80;;;;;;5114987;28;20043;-68
2023/04/05 00:30:04;;;;;;;0.52;0.40;;;3.50;70.80;;;;;;5115011;28;20040;-68
2023/04/05 00:32:30;;;;;;;0.55;0.32;;;3.50;70.80;;;;;;5115051;28;20035;-68
2023/04/05 00:34:55;;;;;;;0.40;0.30;;;3.50;70.80;;;;;;5114982;28;20084;-68
2023/04/05 00:37:21;;;;;;;0.30;0.30;;;3.50;70.90;;;;;;5115103;28;20126;-68
2023/04/05 00:39:47;;;;;;;0.20;0.20;;;3.50;70.80;;;;;;5114978;28;20035;-68
2023/04/05 00:42:13;;;;;;;0.75;0.30;;;3.50;70.80;;;;;;5115235;28;20044;-68
2023/04/05 00:44:39;;;;;;;0.28;0.28;;;3.40;70.80;;;;;;5115044;28;20047;-69
2023/04/05 00:47:06;;;;;;;0.43;0.28;;;3.40;70.80;;;;;;5096812;28;20040;-69
2023/04/05 00:49:33;;;;;;;0.85;0.47;;;3.50;70.90;;;;;;5079441;28;20869;-69
2023/04/05 00:51:59;;;;;;;0.50;0.40;;;3.30;70.80;;;;;;5095836;28;20054;-68
2023/04/05 00:54:28;;;;;;;1.05;0.50;;;3.40;70.90;;;;;;5094996;28;20407;-68
2023/04/05 00:56:55;;;;;;;0.40;0.38;;;3.30;70.90;;;;;;5114804;28;20036;-68
2023/04/05 00:59:21;;;;;;;0.55;0.35;;;3.30;70.90;;;;;;5114498;28;20448;-68
2023/04/05 01:01:54;;;;;;;0.20;0.20;;;3.30;70.80;;;;;;5114637;28;20073;-68
2023/04/05 01:04:26;;;;;;;0.30;0.30;;;3.30;70.80;;;;;;5114520;28;20130;-69
2023/04/05 01:07:08;;;;;;;0.40;0.40;;;3.40;70.90;;;;;;5114340;28;20071;-69
2023/04/05 01:09:39;;;;;;;;;;;3.30;70.80;;;;;;5095744;28;20090;-69
2023/04/05 01:12:08;;;;;;;0.60;0.43;;;3.30;70.90;;;;;;5114514;28;19918;-69
2023/04/05 01:14:50;;;;;;;0.30;0.30;;;3.20;70.80;;;;;;5114965;28;20093;-68
2023/04/05 01:17:21;;;;;;;0.20;0.20;;;3.20;70.90;;;;;;5111674;28;20050;-68
2023/04/05 01:19:49;;;;;;;0.32;0.32;;;3.10;70.90;;;;;;5093678;28;20036;-69
2023/04/05 01:22:44;;;;;;;0.68;0.45;;;3.10;70.90;;;;;;5110870;28;20075;-67
2023/04/05 01:25:29;;;;;;;0.32;0.32;;;3.10;70.90;;;;;;5099200;28;20157;-68
2023/04/05 01:28:25;;;;;;;0.47;0.30;;;3.00;70.90;;;;;;5096024;28;20044;-68
2023/04/05 01:31:05;;;;;;;0.20;0.20;;;3.10;71.10;;;;;;5114124;28;20116;-69
2023/04/05 01:33:43;;;;;;;0.75;0.40;;;3.10;71.20;;;;;;5092482;28;20040;-68
2023/04/05 01:36:22;;;;;;;0.32;0.32;;;3.00;71.10;;;;;;5112370;28;20047;-69
2023/04/05 01:38:50;;;;;;;0.68;0.40;;;2.90;71.10;;;;;;5114168;28;20471;-69
2023/04/05 01:41:15;;;;;;;0.50;0.32;;;2.90;71.20;;;;;;5114171;28;20039;-69
2023/04/05 01:43:41;;;;;;;0.30;0.30;;;2.90;71.20;;;;;;5114184;28;20091;-69
2023/04/05 01:46:07;;;;;;;0.50;0.40;;;3.00;71.20;;;;;;5094261;28;20487;-68
2023/04/05 01:48:32;;;;;;;0.55;0.30;;;3.00;71.20;;;;;;5113900;28;20038;-69
2023/04/05 01:50:58;;;;;;;0.45;0.40;;;2.90;71.20;;;;;;5094793;28;20471;-69
2023/04/05 01:53:23;;;;;;;0.40;0.40;;;2.90;71.20;;;;;;5094067;28;20047;-68
2023/04/05 01:55:49;;;;;;;0.55;0.43;;;2.90;71.20;;;;;;5114176;28;20044;-67
2023/04/05 01:58:15;;;;;;;0.20;0.20;;;2.90;71.20;;;;;;5114069;28;20043;-67
2023/04/05 02:00:40;;;;;;;0.47;0.40;;;2.80;71.20;;;;;;5114400;28;20043;-66
2023/04/05 02:03:06;;;;;;;0.40;0.40;;;2.80;71.30;;;;;;5113781;28;20039;-67
2023/04/05 02:05:31;;;;;;;0.30;0.20;;;2.80;71.40;;;;;;5113744;28;20057;-66
2023/04/05 02:07:57;;;;;;;0.55;0.40;;;2.80;71.40;;;;;;5113772;28;20043;-66
2023/04/05 02:10:23;;;;;;;0.40;0.40;;;2.70;71.50;;;;;;5113662;28;20039;-66
2023/04/05 02:12:50;;;;;;;0.40;0.30;;;2.70;71.50;;;;;;5095350;28;20063;-66
2023/04/05 02:15:15;;;;;;;0.85;0.50;;;2.60;71.60;;;;;;5113650;28;20048;-66
2023/04/05 02:17:44;;;;;;;0.40;0.40;;;2.60;71.70;;;;;;5095329;28;20510;-66
2023/04/05 02:20:13;;;;;;;0.50;0.40;;;2.60;72.40;;;;;;5112962;28;20496;-66
2023/04/05 02:22:39;;;;;;;0.82;0.40;;;2.70;71.80;;;;;;5113343;28;20053;-67
2023/04/05 02:25:07;;;;;;;0.40;0.32;;;2.60;71.70;;;;;;5077676;28;20126;-66
2023/04/05 02:27:34;;;;;;;0.32;0.30;;;2.60;71.80;;;;;;5113583;28;20479;-67
2023/04/05 02:29:59;;;;;;;0.95;0.50;;;2.70;71.90;;;;;;5113574;28;20096;-66
2023/04/05 02:32:25;;;;;;;0.60;0.50;;;2.60;71.80;;;;;;5094873;28;20071;-66
2023/04/05 02:34:51;;;;;;;0.52;0.40;;;2.60;71.80;;;;;;5113226;28;20039;-66
2023/04/05 02:37:18;;;;;;;0.52;0.30;;;2.50;71.80;;;;;;5113086;28;20126;-66
2023/04/05 02:39:44;;;;;;;0.28;0.20;;;2.60;71.90;;;;;;5113236;28;20055;-67
2023/04/05 02:42:09;;;;;;;0.30;0.30;;;2.60;71.90;;;;;;5077645;28;20044;-66
2023/04/05 02:44:35;;;;;;;0.75;0.43;;;2.60;71.90;;;;;;5094797;28;20078;-66
2023/04/05 02:47:01;;;;;;;0.82;0.30;;;2.60;72.00;;;;;;5113602;28;20044;-66
2023/04/05 02:49:27;;;;;;;0.70;0.30;;;2.50;71.90;;;;;;5113240;28;20040;-66
2023/04/05 02:51:54;;;;;;;0.50;0.40;;;2.50;71.90;;;;;;5112807;28;20044;-66
2023/04/05 02:54:20;;;;;;;0.50;0.40;;;2.50;72.00;;;;;;5093202;28;20223;-66
2023/04/05 02:56:46;;;;;;;0.40;0.35;;;2.50;72.60;;;;;;5112917;28;20071;-66
2023/04/05 02:59:12;;;;;;;0.30;0.30;;;2.50;72.00;;;;;;5094375;28;20465;-66
2023/04/05 03:01:43;;;;;;;0.40;0.30;;;2.40;71.90;;;;;;5112901;28;20052;-66
2023/04/05 03:04:12;;;;;;;0.63;0.50;;;2.50;72.10;;;;;;5112706;28;20043;-66
2023/04/05 03:06:38;;;;;;;0.25;0.20;;;2.50;72.10;;;;;;5095036;28;20039;-67
2023/04/05 03:09:04;;;;;;;0.45;0.45;;;2.50;72.10;;;;;;5112761;28;20039;-67
2023/04/05 03:11:30;;;;;;;0.70;0.60;;;2.40;72.10;;;;;;5112804;28;20034;-67
2023/04/05 03:13:56;;;;;;;0.32;0.20;;;2.40;72.00;;;;;;5094610;28;20035;-66
2023/04/05 03:16:21;;;;;;;1.00;0.70;;;2.40;72.10;;;;;;5112884;28;20031;-66
2023/04/05 03:18:48;;;;;;;1.00;0.50;;;2.40;72.20;;;;;;5112468;28;20044;-67
2023/04/05 03:21:16;;;;;;;0.57;0.30;;;2.40;72.20;;;;;;5093573;28;20450;-67
2023/04/05 03:23:45;;;;;;;0.30;0.30;;;2.40;72.30;;;;;;5112418;28;20126;-66
2023/04/05 03:26:12;;;;;;;0.30;0.30;;;2.40;72.30;;;;;;5112496;28;20043;-66
2023/04/05 03:28:43;;;;;;;1.42;0.50;;;2.30;72.30;;;;;;5112522;28;20043;-67
2023/04/05 03:31:10;;;;;;;0.40;0.20;;;2.30;72.30;;;;;;5112220;28;20039;-66
2023/04/05 03:33:36;;;;;;;0.50;0.40;;;2.30;72.40;;;;;;5112400;28;20610;-66
2023/04/05 03:36:03;;;;;;;0.30;0.30;;;2.20;72.40;;;;;;5112949;28;20127;-66
2023/04/05 03:38:31;;;;;;;0.50;0.40;;;2.30;72.50;;;;;;5112330;28;20047;-67
2023/04/05 03:40:57;;;;;;;0.20;0.20;;;2.10;72.50;;;;;;5112849;28;20044;-67
2023/04/05 03:43:23;;;;;;;0.50;0.40;;;2.20;72.60;;;;;;5094206;28;20441;-67
2023/04/05 03:45:49;;;;;;;0.47;0.20;;;2.20;72.70;;;;;;5112070;28;20490;-66
2023/04/05 03:48:18;;;;;;;1.52;0.60;;;2.10;73.40;;;;;;5112325;28;20042;-66
2023/04/05 03:50:45;;;;;;;0.47;0.40;;;2.10;72.90;;;;;;5112115;28;20119;-66
2023/04/05 03:53:10;;;;;;;0.32;0.30;;;2.00;73.00;;;;;;5112073;28;20043;-66
2023/04/05 03:55:36;;;;;;;0.38;0.28;;;1.90;73.10;;;;;;5092866;28;20078;-67
2023/04/05 03:58:01;;;;;;;0.40;0.40;;;1.90;73.20;;;;;;5112551;28;20046;-66
2023/04/05 04:00:28;;;;;;;0.60;0.40;;;1.90;73.30;;;;;;5112016;28;20035;-67
2023/04/05 04:02:54;;;;;;;0.47;0.40;;;1.80;73.30;;;;;;5112831;28;20048;-67
2023/04/05 04:05:20;;;;;;;0.50;0.40;;;1.90;73.40;;;;;;5112522;28;20139;-67
2023/04/05 04:07:46;;;;;;;0.40;0.30;;;1.80;73.40;;;;;;5112627;28;20107;-66
2023/04/05 04:10:16;;;;;;;0.38;0.30;;;1.80;73.50;;;;;;5112220;28;20538;-66
2023/04/05 04:12:42;;;;;;;0.30;0.30;;;1.80;73.50;;;;;;5112096;28;20035;-66
2023/04/05 04:15:08;;;;;;;0.30;0.28;;;1.80;73.50;;;;;;5093365;28;20483;-66
2023/04/05 04:17:36;;;;;;;0.63;0.38;;;1.70;73.50;;;;;;5094652;28;20502;-67
2023/04/05 04:20:10;;;;;;;0.52;0.30;;;1.70;74.20;;;;;;5112406;28;20097;-66
2023/04/05 04:22:38;;;;;;;0.38;0.30;;;1.70;73.70;;;;;;5094290;28;20422;-67
2023/04/05 04:25:09;;;;;;;1.30;0.50;;;1.70;73.80;;;;;;5112244;28;20032;-67
2023/04/05 04:27:38;;;;;;;1.35;0.52;;;1.60;74.40;;;;;;5111901;28;20065;-66
2023/04/05 04:30:09;;;;;;;1.02;0.30;;;1.60;73.90;;;;;;5111931;28;20127;-66
2023/04/05 04:35:20;;;;;;;0.57;0.40;;;1.50;74.10;;;;;;5111840;28;20048;-66
2023/04/05 04:37:46;;;;;;;0.50;0.40;;;1.50;74.20;;;;;;5092611;28;20130;-66
2023/04/05 04:40:17;;;;;;;0.30;0.30;;;1.50;74.30;;;;;;5112265;28;20039;-66
2023/04/05 04:42:45;;;;;;;0.43;0.40;;;1.50;74.40;;;;;;5113996;28;20046;-66
2023/04/05 04:45:16;;;;;;;0.40;0.40;;;1.40;74.30;;;;;;5115336;28;20611;-66
2023/04/05 04:47:42;;;;;;;0.82;0.52;;;1.40;74.40;;;;;;5115330;28;20118;-66
2023/04/05 04:50:09;;;;;;;0.50;0.30;;;1.40;74.40;;;;;;5115487;28;20043;-66
2023/04/05 04:52:35;;;;;;;0.55;0.40;;;1.40;74.40;;;;;;5115139;28;20039;-66
2023/04/05 04:55:01;;;;;;;0.55;0.47;;;1.40;74.50;;;;;;5115534;28;20402;-66
2023/04/05 04:57:27;;;;;;;0.40;0.40;;;1.40;74.50;;;;;;5115565;28;20082;-66
2023/04/05 04:59:53;;;;;;;0.77;0.50;;;1.40;74.50;;;;;;5114993;28;20052;-66
2023/04/05 05:02:27;;;;;;;0.45;0.32;;;1.40;74.50;;;;;;5115349;28;20039;-66
2023/04/05 05:04:52;;;;;;;0.30;0.30;;;1.30;74.50;;;;;;5114965;28;20048;-66
2023/04/05 05:07:19;;;;;;;0.30;0.30;;;1.50;74.50;;;;;;5115051;28;20054;-66
2023/04/05 05:09:45;;;;;;;0.77;0.50;;;1.40;74.50;;;;;;5115209;28;20073;-66
2023/04/05 05:12:11;;;;;;;0.88;0.43;;;1.50;74.50;;;;;;5115271;28;20049;-67
2023/04/05 05:14:36;;;;;;;0.73;0.60;;;1.40;74.40;;;;;;5114620;28;20047;-67
2023/04/05 05:17:04;;;;;;;0.55;0.52;;;1.40;74.40;;;;;;5114812;28;20043;-66
2023/04/05 05:19:30;;;;;;;0.30;0.30;;;1.40;74.50;;;;;;5096486;28;20452;-67
2023/04/05 05:21:56;;;;;;;0.20;0.20;;;1.50;74.50;;;;;;5115170;28;20101;-67
2023/04/05 05:24:22;;;;;;;0.40;0.40;;;1.40;74.50;;;;;;5114777;28;20032;-67
2023/04/05 05:26:47;;;;;;;0.47;0.47;;;1.40;74.50;;;;;;5112903;28;20505;-66
2023/04/05 05:29:13;;;;;;;1.08;0.50;;;1.40;74.60;;;;;;5096165;28;20048;-67
2023/04/05 05:31:39;;;;;;;0.68;0.40;;;1.40;74.70;;;;;;5114454;28;20040;-67
2023/04/05 05:34:05;;;;;;;0.32;0.30;;;1.40;74.70;;;;;;5114524;28;20032;-67
2023/04/05 05:36:32;;;;;;;0.60;0.35;;;1.30;74.80;;;;;;5096286;28;20145;-67
2023/04/05 05:38:58;;;;;;;0.22;0.22;;;1.30;74.80;;;;;;5114537;28;20070;-67
2023/04/05 05:41:23;;;;;;;0.38;0.32;;;1.30;74.90;;;;;;5114510;28;20059;-67
2023/04/05 05:43:49;;;;;;;0.52;0.40;;;1.30;74.90;;;;;;5112378;28;20043;-67
2023/04/05 05:46:15;;;;;;;0.90;0.50;;;1.30;75.00;;;;;;5114378;28;20044;-66
2023/04/05 05:48:41;;;;;;;0.40;0.40;;;1.30;75.00;;;;;;5077798;28;20040;-67
2023/04/05 05:51:10;;;;;;;1.02;0.40;;;1.30;75.00;;;;;;5114132;28;20443;-66
2023/04/05 05:53:36;;;;;;;0.68;0.40;;;1.40;75.00;;;;;;5114171;28;20032;-66
2023/04/05 05:56:02;;;;;;;0.40;0.30;;;1.50;75.00;;;;;;5114100;28;20047;-66
2023/04/05 05:58:27;;;;;;;0.43;0.40;;;1.60;74.90;;;;;;5114594;28;20040;-66
2023/04/05 06:00:55;;;;;;;0.73;0.30;;;1.70;74.70;;;;;;5093905;28;20487;-67
2023/04/05 06:03:21;;;;;;;0.90;0.50;;;1.70;74.60;;;;;;5114425;28;20101;-66
2023/04/05 06:05:51;;;;;;;0.30;0.30;;;1.80;74.40;;;;;;5095731;28;20124;-66
2023/04/05 06:08:16;;;;;;;0.52;0.38;;;1.90;74.40;;;;;;5114183;28;20115;-66
2023/04/05 06:10:42;;;;;;;0.60;0.28;;;2.00;74.30;;;;;;5114153;28;20116;-65
2023/04/05 06:13:07;;;;;;;0.85;0.50;;;2.10;74.80;;;;;;5113803;28;20414;-66
2023/04/05 06:15:33;;;;;;;0.47;0.30;;;2.20;74.10;;;;;;5113961;28;20043;-67
2023/04/05 06:17:59;;;;;;;1.08;0.60;;;2.30;73.90;;;;;;5114151;28;20043;-67
2023/04/05 06:20:24;;;;;;;0.40;0.40;;;2.40;73.90;;;;;;5113942;28;20054;-67
2023/04/05 06:22:50;;;;;;;0.93;0.60;;;2.50;73.80;;;;;;5094557;28;20048;-66
2023/04/05 06:25:16;;;;;;;0.82;0.50;;;2.60;73.60;;;;;;5113387;28;20044;-66
2023/04/05 06:27:41;;;;;;;0.30;0.30;;;2.70;73.50;;;;;;5113575;28;20035;-66
2023/04/05 06:30:07;;;;;;;0.43;0.43;;;2.80;73.40;;;;;;5113499;28;20092;-66
2023/04/05 06:32:33;;;;;;;1.63;0.77;;;2.90;73.30;;;;;;5113431;28;20048;-66
2023/04/05 06:35:02;;;;;;;1.35;0.70;;;3.00;73.20;;;;;;5113485;28;20616;-66
2023/04/05 06:37:28;;;;;;;1.13;0.70;;;3.00;73.10;;;;;;5113331;28;20036;-67
2023/04/05 06:39:54;;;;;;;0.40;0.40;;;3.10;73.00;;;;;;5113277;28;21038;-68
2023/04/05 06:42:20;;;;;;;0.45;0.40;;;3.20;72.90;;;;;;5094946;28;20043;-68
2023/04/05 06:44:45;;;;;;;0.90;0.60;;;3.30;72.90;;;;;;5094990;28;20040;-70
2023/04/05 06:47:12;;;;;;;0.80;0.70;;;3.40;72.80;;;;;;5095148;28;20031;-70
2023/04/05 06:49:37;;;;;;;0.80;0.68;;;3.50;72.80;;;;;;5095724;28;20036;-70
2023/04/05 06:52:05;;;;;;;0.40;0.40;;;3.60;72.70;;;;;;5113694;28;20123;-69
2023/04/05 06:54:32;;;;;;;0.90;0.57;;;3.60;72.60;;;;;;5095458;28;20046;-69
2023/04/05 06:56:58;;;;;;;1.15;0.73;;;3.70;72.50;;;;;;5113250;28;20039;-69
2023/04/05 06:59:24;;;;;;;0.75;0.70;;;3.80;72.40;;;;;;5095437;28;20093;-69
2023/04/05 07:01:50;;;;;;;1.45;0.80;;;3.90;72.40;;;;;;5113723;28;20039;-69
2023/04/05 07:04:15;;;;;;;0.52;0.52;;;4.00;72.30;;;;;;5070315;28;20040;-69
2023/04/05 07:06:41;;;;;;;0.70;0.60;;;4.10;72.30;;;;;;5070444;28;20066;-69
2023/04/05 07:09:06;;;;;;;2.05;0.70;;;4.20;72.20;;;;;;5070305;28;20113;-69
2023/04/05 07:11:32;;;;;;;1.10;0.80;;;4.20;72.10;;;;;;5070151;28;20036;-69
2023/04/05 07:13:59;;;;;;;1.10;0.70;;;4.30;72.10;;;;;;5053925;28;20178;-69
2023/04/05 07:16:24;;;;;;;0.80;0.68;;;4.30;72.00;;;;;;5036735;28;20136;-69
2023/04/05 07:18:50;;;;;;;1.70;0.73;;;4.40;71.90;;;;;;5070551;28;20088;-69
2023/04/05 07:21:16;;;;;;;1.42;0.68;;;4.50;71.90;;;;;;5036698;28;20404;-69
2023/04/05 07:23:47;;;;;;;1.45;0.75;;;4.60;71.80;;;;;;5053376;28;20543;-69
2023/04/05 07:26:13;;;;;;;0.65;0.57;;;4.60;71.70;;;;;;5037645;28;20059;-70
2023/04/05 07:28:38;;;;;;;1.58;0.80;;;4.70;71.70;;;;;;5070221;28;20040;-68
2023/04/05 07:31:05;;;;;;;0.90;0.52;;;4.80;71.60;;;;;;5070246;28;20068;-69
2023/04/05 07:33:31;;;;;;;0.63;0.47;;;4.90;72.20;;;;;;5053282;28;20458;-68
2023/04/05 07:35:57;;;;;;;1.65;0.80;;;5.00;71.50;;;;;;5102714;28;20131;-68
2023/04/05 07:38:23;;;;;;;0.90;0.63;;;5.10;71.40;;;;;;5113005;28;20048;-68
2023/04/05 07:40:49;;;;;;;0.77;0.50;;;5.20;71.30;;;;;;5112810;28;20096;-69
2023/04/05 07:43:18;;;;;;;0.77;0.70;;;5.30;71.20;;;;;;5077410;28;20462;-68
2023/04/05 07:45:44;;;;;;;0.77;0.60;;;5.40;71.10;;;;;;5112527;28;20046;-68
2023/04/05 07:48:10;;;;;;;0.60;0.60;;;5.40;70.90;;;;;;5112850;28;20051;-68
2023/04/05 07:50:38;;;;;;;1.25;0.70;;;5.50;70.80;;;;;;5112451;28;20036;-68
2023/04/05 07:53:04;;;;;;;0.73;0.50;;;5.60;70.70;;;;;;5112553;28;20078;-69
2023/04/05 07:55:30;;;;;;;1.30;0.90;;;5.80;70.70;;;;;;5094394;28;20116;-69
2023/04/05 07:57:57;;;;;;;1.02;0.60;;;5.80;70.50;;;;;;5112380;28;20094;-69
2023/04/05 08:00:23;;;;;;;0.52;0.52;;;6.00;70.40;;;;;;5112361;28;20048;-69
2023/04/05 08:02:48;;;;;;;0.85;0.50;;;6.20;70.30;;;;;;5112383;28;20046;-68
2023/04/05 08:05:14;;;;;;;0.90;0.50;;;6.40;70.20;;;;;;5112704;28;20474;-68
2023/04/05 08:07:40;;;;;;;1.00;0.60;;;6.40;70.00;;;;;;5112288;28;20035;-68
2023/04/05 08:10:06;;;;;;;0.70;0.70;;;6.60;69.80;;;;;;5111487;28;20506;-68
2023/04/05 08:12:33;;;;;;;1.20;0.65;;;6.80;69.70;;;;;;5093332;28;20040;-68
2023/04/05 08:14:59;;;;;;;0.95;0.70;;;6.90;69.60;;;;;;5112322;28;20483;-68
2023/04/05 08:17:27;;;;;;;0.95;0.65;;;7.00;69.40;;;;;;5114322;28;20044;-69
2023/04/05 08:19:53;;;;;;;1.15;0.63;;;7.30;69.40;;;;;;5115747;28;20514;-69
2023/04/05 08:22:19;;;;;;;0.68;0.68;;;7.40;69.10;;;;;;5115740;28;20498;-69
2023/04/05 08:24:45;;;;;;;1.15;0.60;;;7.60;68.90;;;;;;5115374;28;20040;-69
2023/04/05 08:27:11;;;;;;;0.82;0.60;;;7.80;68.70;;;;;;5095589;28;20048;-69
2023/04/05 08:29:37;;;;;;;0.50;0.50;;;7.90;68.50;;;;;;5096905;28;20039;-69
2023/04/05 08:32:03;;;;;;;0.73;0.60;;;8.00;68.50;;;;;;5097404;28;20556;-68
2023/04/05 08:34:29;;;;;;;0.60;0.52;;;8.20;68.50;;;;;;5115569;28;20538;-68
2023/04/05 08:36:58;;;;;;;0.95;0.60;;;8.40;68.40;;;;;;5097214;28;20059;-69
2023/04/05 08:39:24;;;;;;;0.82;0.63;;;8.50;68.20;;;;;;5115666;28;20078;-69
2023/04/05 08:42:14;;;;;;;1.15;0.90;;;8.60;68.10;;;;;;5095516;28;20075;-68
2023/04/05 08:44:41;;;;;;;1.10;0.80;;;8.80;68.00;;;;;;5096893;28;20043;-68
2023/04/05 08:47:13;;;;;;;1.02;0.70;;;8.90;67.90;;;;;;5115919;28;20039;-69
2023/04/05 08:49:43;;;;;;;0.90;0.60;;;9.00;67.80;;;;;;5065073;28;20047;-70
2023/04/05 08:52:08;;;;;;;0.50;0.50;;;9.10;67.80;;;;;;5115210;28;20036;-68
2023/04/05 08:54:34;;;;;;;1.88;1.00;;;9.30;67.80;;;;;;5078422;28;20040;-68
2023/04/05 08:57:04;;;;;;;1.00;0.60;;;9.30;67.60;;;;;;5096569;28;20126;-68
2023/04/05 08:59:34;;;;;;;0.77;0.68;;;9.50;67.60;;;;;;5096497;28;20153;-68
2023/04/05 09:02:01;;;;;;;0.98;0.75;;;9.60;67.50;;;;;;5115045;28;20502;-69
2023/04/05 09:04:30;;;;;;;0.77;0.60;;;9.70;67.50;;;;;;5114599;28;20126;-69
2023/04/05 09:06:58;;;;;;;0.88;0.70;;;9.70;67.20;;;;;;5095578;28;20036;-69
2023/04/05 09:09:24;;;;;;;0.93;0.70;;;9.80;67.50;;;;;;5096835;28;20039;-69
2023/04/05 09:11:50;;;;;;;0.70;0.70;;;9.90;67.50;;;;;;5114956;28;20089;-69
2023/04/05 09:14:16;;;;;;;0.73;0.60;;;9.90;67.50;;;;;;5115299;28;20383;-68
2023/04/05 09:16:42;;;;;;;0.60;0.60;;;10.10;67.60;;;;;;5114713;28;20040;-68
2023/04/05 09:19:10;;;;;;;0.73;0.50;;;10.10;67.50;;;;;;5114702;28;20040;-69
2023/04/05 09:21:59;;;;;;;1.05;0.73;;;10.30;67.50;;;;;;5114829;28;20040;-69
2023/04/05 09:24:41;;;;;;;0.50;0.50;;;10.40;67.30;;;;;;5114677;28;20083;-69
2023/04/05 09:27:12;;;;;;;0.60;0.60;;;10.40;67.30;;;;;;5096346;28;20112;-69
2023/04/05 09:29:40;;;;;;;0.77;0.52;;;10.40;67.40;;;;;;5096046;28;20047;-69
2023/04/05 09:32:08;;;;;;;1.05;0.80;;;10.50;67.40;;;;;;5114348;28;20112;-67
2023/04/05 09:34:36;;;;;;;0.70;0.70;;;10.60;67.40;;;;;;5114844;28;20040;-69
2023/04/05 09:37:11;;;;;;;0.52;0.50;;;10.60;67.20;;;;;;5114453;28;20035;-68
2023/04/05 09:39:37;;;;;;;0.63;0.55;;;10.70;67.20;;;;;;5095721;28;20546;-69
2023/04/05 09:42:06;;;;;;;0.57;0.50;;;10.70;67.30;;;;;;5077944;28;20072;-69
2023/04/05 09:44:53;;;;;;;1.20;0.80;;;10.60;67.30;;;;;;5096024;28;20506;-69
2023/04/05 09:47:21;;;;;;;1.70;0.70;;;10.80;67.20;;;;;;5114103;28;20039;-69
2023/04/05 09:49:47;;;;;;;0.80;0.63;;;10.80;67.30;;;;;;5094707;28;20119;-68
2023/04/05 09:52:23;;;;;;;1.00;0.68;;;10.80;67.20;;;;;;5113427;28;20074;-69
2023/04/05 09:54:54;;;;;;;0.90;0.73;;;10.70;67.10;;;;;;5062618;28;20031;-69
2023/04/05 09:57:20;;;;;;;0.68;0.68;;;10.60;67.50;;;;;;5096238;28;20039;-69
2023/04/05 09:59:46;;;;;;;0.75;0.68;;;10.60;67.70;;;;;;5096121;28;20116;-69
2023/04/05 10:02:12;;;;;;;0.95;0.85;;;10.70;67.50;;;;;;5077793;28;20048;-68
2023/04/05 10:04:40;;;;;;;0.75;0.60;;;10.80;67.20;;;;;;5114342;28;20066;-69
2023/04/05 10:07:07;;;;;;;1.30;0.85;;;10.80;67.00;;;;;;5095710;28;20040;-69
2023/04/05 10:09:33;;;;;;;0.77;0.57;;;10.90;66.90;;;;;;5114038;28;20032;-68
2023/04/05 10:12:01;;;;;;;1.05;0.75;;;10.80;66.90;;;;;;5113737;28;20554;-68
2023/04/05 10:14:27;;;;;;;0.60;0.60;;;10.90;67.10;;;;;;5113897;28;20046;-67
2023/04/05 10:17:11;;;;;;;0.95;0.60;;;10.90;66.90;;;;;;5113642;28;20473;-68
2023/04/05 10:20:08;;;;;;;0.70;0.70;;;11.00;66.70;;;;;;5113783;28;20047;-68
2023/04/05 10:22:47;;;;;;;0.60;0.60;;;10.90;66.60;;;;;;5114154;28;20040;-68
2023/04/05 10:25:38;;;;;;;1.00;0.70;;;10.90;67.00;;;;;;5113914;28;20081;-68
2023/04/05 10:28:09;;;;;;;0.80;0.70;;;11.00;66.90;;;;;;5111675;28;20038;-67
2023/04/05 10:30:39;;;;;;;0.60;0.52;;;11.00;66.70;;;;;;5093751;28;20043;-68
2023/04/05 10:33:20;;;;;;;1.25;0.70;;;11.00;66.50;;;;;;5113210;28;20092;-67
2023/04/05 10:36:11;;;;;;;1.10;0.85;;;11.10;66.30;;;;;;5112943;28;20043;-68
2023/04/05 10:39:00;;;;;;;1.05;0.52;;;10.90;66.10;;;;;;5093457;28;20551;-68
2023/04/05 10:41:28;;;;;;;2.05;1.05;;;11.00;66.30;;;;;;5112468;28;20156;-67
2023/04/05 10:43:56;;;;;;;0.90;0.80;;;11.00;66.00;;;;;;5113380;28;20380;-68
2023/04/05 10:46:23;;;;;;;1.25;1.05;;;10.80;66.10;;;;;;5078266;28;20040;-68
2023/04/05 10:49:00;;;;;;;2.45;1.00;;;10.70;66.20;;;;;;5113880;28;20058;-68
2023/04/05 10:51:26;;;;;;;1.30;1.00;;;10.70;66.20;;;;;;5093997;28;20124;-68
2023/04/05 10:53:55;;;;;;;0.90;0.73;;;10.80;66.10;;;;;;5113455;28;20040;-68
2023/04/05 10:56:21;;;;;;;2.35;1.00;;;10.90;65.80;;;;;;5113235;28;20076;-67
2023/04/05 10:58:49;;;;;;;0.80;0.70;;;11.00;65.60;;;;;;5113540;28;20051;-69
2023/04/05 11:01:16;;;;;;;1.38;0.80;;;11.10;65.40;;;;;;5113618;28;20062;-68
2023/04/05 11:03:47;;;;;;;0.98;0.80;;;11.20;65.20;;;;;;5077978;28;20047;-67
2023/04/05 11:06:30;;;;;;;1.10;0.65;;;11.20;65.00;;;;;;5112930;28;20043;-67
2023/04/05 11:09:09;;;;;;;1.40;0.80;;;11.30;64.80;;;;;;5095192;28;20122;-66
2023/04/05 11:11:39;;;;;;;0.70;0.70;;;11.40;64.50;;;;;;5113443;28;20092;-67
2023/04/05 11:14:18;;;;;;;0.40;0.40;;;11.40;64.30;;;;;;5094338;28;20074;-67
2023/04/05 11:16:47;;;;;;;1.02;0.90;;;11.40;64.10;;;;;;5113007;28;20494;-66
2023/04/05 11:19:16;;;;;;;1.30;1.10;;;11.40;63.90;;;;;;5113145;28;20069;-67
2023/04/05 11:21:43;;;;;;;1.10;0.90;;;11.30;64.10;;;;;;5112840;28;20048;-67
2023/04/05 11:24:14;;;;;;;0.98;0.77;;;11.20;64.20;;;;;;5112969;28;20126;-67
2023/04/05 11:26:56;;;;;;;0.70;0.70;;;11.40;64.30;;;;;;5113193;28;20054;-67
2023/04/05 11:29:48;;;;;;;1.05;0.75;;;11.50;64.00;;;;;;5112914;28;20043;-67
2023/04/05 11:32:14;;;;;;;1.27;0.88;;;11.70;63.50;;;;;;5112598;28;20503;-68
2023/04/05 11:34:42;;;;;;;0.95;0.88;;;11.70;63.40;;;;;;5112825;28;20126;-68
2023/04/05 11:37:08;;;;;;;0.63;0.63;;;11.80;63.20;;;;;;5093801;28;20040;-68
2023/04/05 11:39:36;;;;;;;1.23;0.73;;;11.90;63.10;;;;;;5112620;28;20074;-68
2023/04/05 11:42:08;;;;;;;1.60;0.70;;;12.00;62.80;;;;;;5092857;28;20143;-68
2023/04/05 11:44:43;;;;;;;0.90;0.90;;;12.10;62.50;;;;;;5109372;28;20075;-68
2023/04/05 11:47:10;;;;;;;1.90;0.80;;;12.10;62.40;;;;;;5110909;28;20044;-68
2023/04/05 11:49:37;;;;;;;0.80;0.63;;;12.20;62.30;;;;;;5112543;28;20058;-68
2023/04/05 11:52:13;;;;;;;0.70;0.60;;;12.20;62.90;;;;;;5111801;28;20035;-68
2023/04/05 11:54:44;;;;;;;0.63;0.60;;;12.20;62.20;;;;;;5113773;28;20048;-68
2023/04/05 11:57:12;;;;;;;2.25;1.10;;;12.30;62.20;;;;;;5096894;28;20043;-68
2023/04/05 11:59:38;;;;;;;1.10;1.00;;;12.40;61.80;;;;;;5098074;28;20513;-68
2023/04/05 12:02:07;;;;;;;1.88;1.13;;;12.40;62.00;;;;;;5116206;28;20048;-68
2023/04/05 12:04:33;;;;;;;1.85;0.93;;;12.40;62.00;;;;;;5115554;28;20051;-68
2023/04/05 12:07:16;;;;;;;1.08;0.90;;;12.60;61.80;;;;;;5096153;28;20500;-68
2023/04/05 12:09:57;;;;;;;1.00;0.90;;;12.70;61.60;;;;;;5112599;28;20046;-69
2023/04/05 12:12:23;;;;;;;0.77;0.75;;;12.60;61.20;;;;;;5096706;28;20126;-69
2023/04/05 12:14:48;;;;;;;0.95;0.80;;;12.80;61.50;;;;;;5115628;28;20131;-69
2023/04/05 12:17:14;;;;;;;0.75;0.75;;;12.90;61.40;;;;;;5115779;28;20500;-68
2023/04/05 12:19:42;;;;;;;0.82;0.73;;;13.00;61.20;;;;;;5115644;28;20046;-69
2023/04/05 12:22:08;;;;;;;0.85;0.77;;;13.10;60.90;;;;;;5116178;28;20066;-68
2023/04/05 12:24:34;;;;;;;1.42;0.77;;;13.00;60.90;;;;;;5116006;28;20462;-69
2023/04/05 12:27:00;;;;;;;2.13;1.02;;;13.00;61.00;;;;;;5115880;28;20039;-68
2023/04/05 12:29:25;;;;;;;1.77;1.10;;;12.90;61.00;;;;;;5080640;28;20040;-68
2023/04/05 12:31:51;;;;;;;0.95;0.90;;;12.80;61.10;;;;;;5115462;28;20039;-70
2023/04/05 12:34:25;;;;;;;1.80;1.13;;;12.80;61.40;;;;;;5115631;28;20047;-70
2023/04/05 12:36:52;;;;;;;1.77;1.10;;;12.90;61.20;;;;;;5115303;28;20040;-68
2023/04/05 12:39:20;;;;;;;1.38;1.02;;;12.90;61.00;;;;;;5095860;28;20043;-68
2023/04/05 12:41:56;;;;;;;1.55;1.02;;;12.80;61.30;;;;;;5115299;28;20094;-69
2023/04/05 12:44:29;;;;;;;1.00;0.90;;;12.90;61.20;;;;;;5096897;28;20085;-68
2023/04/05 12:47:02;;;;;;;1.90;1.10;;;12.80;61.10;;;;;;5115389;28;21478;-68
2023/04/05 12:49:28;;;;;;;2.03;1.08;;;12.90;61.10;;;;;;5115309;28;20035;-69
2023/04/05 12:51:59;;;;;;;1.58;1.25;;;12.80;61.00;;;;;;5115014;28;20043;-68
2023/04/05 12:54:26;;;;;;;1.40;1.10;;;12.80;61.00;;;;;;5096512;28;20031;-68
2023/04/05 12:56:53;;;;;;;1.40;1.10;;;12.70;61.20;;;;;;5115001;28;20032;-68
2023/04/05 12:59:20;;;;;;;1.50;1.17;;;12.80;61.30;;;;;;5115149;28;20071;-68
2023/04/05 13:01:45;;;;;;;1.48;1.13;;;12.90;61.40;;;;;;5115048;28;20038;-68
2023/04/05 13:04:11;;;;;;;1.30;1.13;;;13.00;60.70;;;;;;5114611;28;20031;-68